Time;durP1;ratioP1;P1;durP2;ratioP2;P2;SDS_P1;SDS_P2;PMS_P1;PMS_P2;Temp;Humidity;BMP_temperature;BMP_pressure;BME280_temperature;BME280_humidity;BME280_pressure;Samples;Min_cycle;Max_cycle;Signal;HPM_P1;HPM_P2
2022/10/11 00:00:39;;;;;;;6.25;4.50;;;18.20;96.80;;;;;;5052360;28;20292;-88
2022/10/11 00:03:05;;;;;;;4.95;4.28;;;18.20;95.60;;;;;;5052092;28;20224;-88
2022/10/11 00:05:31;;;;;;;9.27;4.80;;;18.20;95.50;;;;;;5050214;28;20298;-88
2022/10/11 00:07:57;;;;;;;5.15;4.65;;;18.20;95.30;;;;;;5057519;28;20229;-88
2022/10/11 00:10:22;;;;;;;7.72;4.90;;;18.30;94.30;;;;;;5051718;28;20208;-88
2022/10/11 00:12:51;;;;;;;9.98;5.15;;;18.40;93.40;;;;;;5051733;28;20205;-88
2022/10/11 00:15:19;;;;;;;9.85;4.55;;;18.30;93.30;;;;;;5049410;28;20224;-88
2022/10/11 00:17:45;;;;;;;5.22;4.30;;;18.30;93.70;;;;;;5051353;28;20311;-88
2022/10/11 00:20:11;;;;;;;5.15;4.68;;;18.40;94.40;;;;;;5049835;28;20199;-88
2022/10/11 00:22:39;;;;;;;5.75;4.95;;;18.30;94.20;;;;;;5051984;28;20334;-88
2022/10/11 00:25:07;;;;;;;6.75;4.50;;;18.40;95.20;;;;;;5043358;28;20204;-88
2022/10/11 00:27:33;;;;;;;7.13;4.53;;;18.40;95.10;;;;;;5052022;28;20178;-88
2022/10/11 00:30:00;;;;;;;9.18;4.88;;;18.40;95.10;;;;;;5052819;28;20196;-87
2022/10/11 00:32:26;;;;;;;9.70;4.75;;;18.30;94.80;;;;;;5046936;28;20627;-88
2022/10/11 00:34:52;;;;;;;6.55;4.53;;;18.20;94.70;;;;;;5055640;28;20189;-88
2022/10/11 00:37:18;;;;;;;6.70;4.72;;;18.20;94.40;;;;;;5053250;28;20234;-88
2022/10/11 00:39:44;;;;;;;8.00;4.97;;;18.20;95.80;;;;;;5055623;28;20283;-88
2022/10/11 00:42:15;;;;;;;6.13;4.78;;;18.10;96.60;;;;;;5044196;28;20237;-88
2022/10/11 00:44:47;;;;;;;6.50;4.60;;;18.10;96.00;;;;;;5057954;28;20196;-88
2022/10/11 00:47:22;;;;;;;6.43;4.57;;;18.00;96.00;;;;;;5053519;28;20279;-88
2022/10/11 00:49:53;;;;;;;5.10;4.65;;;18.20;95.70;;;;;;5054766;28;20221;-88
2022/10/11 00:52:21;;;;;;;6.40;4.88;;;18.10;94.40;;;;;;5040857;28;20353;-88
2022/10/11 00:54:47;;;;;;;6.15;4.80;;;18.10;93.80;;;;;;5054634;28;20185;-88
2022/10/11 00:57:19;;;;;;;7.30;5.28;;;18.20;93.50;;;;;;5055617;28;20533;-88
2022/10/11 00:59:51;;;;;;;6.70;5.03;;;18.20;93.70;;;;;;5055390;28;20277;-88
2022/10/11 01:02:18;;;;;;;7.13;5.07;;;18.30;93.70;;;;;;5051897;28;20218;-88
2022/10/11 01:04:44;;;;;;;6.85;4.93;;;18.20;93.40;;;;;;5046043;28;20191;-88
2022/10/11 01:07:10;;;;;;;7.32;5.35;;;18.20;93.10;;;;;;5050994;28;20230;-88
2022/10/11 01:09:36;;;;;;;8.00;5.50;;;18.20;91.20;;;;;;5054236;28;20188;-88
2022/10/11 01:12:09;;;;;;;9.93;5.82;;;18.20;89.70;;;;;;5054365;28;20799;-88
2022/10/11 01:15:01;;;;;;;10.35;6.80;;;18.10;90.90;;;;;;5055222;28;20184;-89
2022/10/11 01:18:05;;;;;;;10.45;6.10;;;18.00;90.70;;;;;;5053576;28;20561;-88
2022/10/11 01:20:57;;;;;;;8.45;5.93;;;17.90;91.80;;;;;;5031791;28;20203;-88
2022/10/11 01:23:29;;;;;;;10.05;5.85;;;17.80;91.50;;;;;;5030890;28;20212;-88
2022/10/11 01:26:06;;;;;;;8.27;6.50;;;17.80;91.90;;;;;;5055116;28;20227;-88
2022/10/11 01:28:40;;;;;;;9.55;5.68;;;17.80;92.40;;;;;;5051549;28;20526;-88
2022/10/11 01:31:39;;;;;;;11.13;6.10;;;17.80;91.40;;;;;;5066770;28;20242;-88
2022/10/11 01:34:07;;;;;;;10.13;6.10;;;17.90;90.80;;;;;;5067694;28;20192;-88
2022/10/11 01:36:36;;;;;;;10.73;5.50;;;17.80;90.40;;;;;;5072119;28;20200;-88
2022/10/11 01:39:23;;;;;;;11.80;5.85;;;17.70;91.30;;;;;;5058960;28;20249;-88
2022/10/11 01:41:53;;;;;;;9.60;6.15;;;17.80;91.10;;;;;;5054638;28;20654;-88
2022/10/11 01:44:19;;;;;;;10.43;6.00;;;17.80;91.20;;;;;;5049132;28;20192;-88
2022/10/11 01:46:45;;;;;;;7.95;5.72;;;17.70;91.40;;;;;;5068770;28;20212;-88
2022/10/11 01:49:10;;;;;;;9.65;5.75;;;17.60;91.70;;;;;;5065347;28;20959;-88
2022/10/11 01:51:44;;;;;;;9.75;5.55;;;17.70;92.20;;;;;;5044462;28;20212;-88
2022/10/11 01:54:44;;;;;;;8.52;6.18;;;17.70;91.60;;;;;;5068682;28;20258;-88
2022/10/11 01:57:19;;;;;;;7.38;5.72;;;17.80;90.60;;;;;;5051798;28;20255;-88
2022/10/11 02:00:11;;;;;;;9.63;5.50;;;17.80;91.30;;;;;;5050461;28;20625;-88
2022/10/11 02:02:45;;;;;;;9.32;6.13;;;17.80;91.80;;;;;;5053390;28;20246;-88
2022/10/11 02:05:15;;;;;;;10.18;5.65;;;17.70;92.20;;;;;;5053878;28;20336;-88
2022/10/11 02:08:23;;;;;;;10.10;5.68;;;17.60;93.50;;;;;;5047324;28;20271;-87
2022/10/11 02:11:24;;;;;;;7.68;5.43;;;17.30;94.80;;;;;;5017356;28;20203;-88
2022/10/11 02:13:53;;;;;;;7.30;5.68;;;17.30;95.10;;;;;;5066559;28;20193;-88
2022/10/11 02:16:24;;;;;;;11.95;5.30;;;17.30;95.10;;;;;;5064332;28;20187;-87
2022/10/11 02:18:54;;;;;;;8.48;5.85;;;17.30;94.60;;;;;;5067166;28;20193;-87
2022/10/11 02:21:22;;;;;;;10.15;6.20;;;17.40;94.10;;;;;;5057006;28;20691;-88
2022/10/11 02:24:03;;;;;;;11.45;5.63;;;17.40;93.70;;;;;;5052948;28;20188;-88
2022/10/11 02:26:31;;;;;;;11.75;6.72;;;17.40;94.50;;;;;;5053948;28;20219;-88
2022/10/11 02:29:00;;;;;;;8.50;6.38;;;17.30;95.00;;;;;;5055263;28;20534;-88
2022/10/11 02:31:30;;;;;;;11.88;6.10;;;17.30;95.20;;;;;;5057721;28;20201;-87
2022/10/11 02:34:04;;;;;;;8.70;5.90;;;17.30;94.60;;;;;;5063047;28;20206;-88
2022/10/11 02:36:39;;;;;;;8.77;5.90;;;17.30;94.10;;;;;;5068739;28;20276;-88
2022/10/11 02:39:13;;;;;;;8.68;5.78;;;17.40;94.20;;;;;;5049508;28;20257;-88
2022/10/11 02:41:41;;;;;;;8.55;6.30;;;17.40;93.40;;;;;;5051216;28;20226;-88
2022/10/11 02:44:25;;;;;;;9.93;6.70;;;17.40;93.30;;;;;;5050109;28;20185;-88
2022/10/11 02:46:52;;;;;;;8.75;6.47;;;17.40;94.00;;;;;;5050208;28;20207;-88
2022/10/11 02:49:18;;;;;;;10.60;6.43;;;17.30;94.30;;;;;;5053438;28;20389;-88
2022/10/11 02:51:44;;;;;;;9.95;6.25;;;17.20;94.70;;;;;;5052094;28;20227;-88
2022/10/11 02:54:09;;;;;;;9.73;6.70;;;17.20;95.00;;;;;;5052336;28;20227;-88
2022/10/11 02:56:35;;;;;;;9.50;6.72;;;17.10;95.40;;;;;;5047241;28;20566;-88
2022/10/11 02:59:01;;;;;;;8.68;6.20;;;17.10;94.70;;;;;;5053437;28;20200;-88
2022/10/11 03:01:27;;;;;;;12.43;6.70;;;17.10;94.70;;;;;;5052807;28;20739;-88
2022/10/11 03:03:52;;;;;;;9.68;6.85;;;17.10;94.70;;;;;;5051583;28;20180;-88
2022/10/11 03:06:18;;;;;;;12.82;7.13;;;17.10;94.30;;;;;;5040342;28;20246;-88
2022/10/11 03:08:44;;;;;;;10.63;7.15;;;17.00;94.40;;;;;;5052822;28;20229;-88
2022/10/11 03:11:09;;;;;;;9.52;7.40;;;16.90;95.10;;;;;;5051546;28;20191;-88
2022/10/11 03:13:35;;;;;;;12.33;8.07;;;16.60;96.20;;;;;;5050008;28;20200;-88
2022/10/11 03:16:01;;;;;;;11.27;7.47;;;16.60;96.20;;;;;;5053099;28;20198;-88
2022/10/11 03:18:28;;;;;;;11.83;7.53;;;16.60;96.50;;;;;;5051191;28;20859;-88
2022/10/11 03:20:54;;;;;;;14.23;8.23;;;16.40;97.20;;;;;;5051577;28;20197;-88
2022/10/11 03:23:20;;;;;;;11.43;8.07;;;16.40;97.10;;;;;;5051769;28;20591;-88
2022/10/11 03:25:45;;;;;;;11.90;8.37;;;16.40;97.30;;;;;;5051575;28;20217;-88
2022/10/11 03:28:11;;;;;;;13.40;8.47;;;16.40;97.10;;;;;;5052520;28;20191;-88
2022/10/11 03:30:37;;;;;;;10.93;9.83;;;16.40;97.10;;;;;;5052570;28;20532;-88
2022/10/11 03:33:03;;;;;;;14.53;11.70;;;16.30;97.00;;;;;;5052279;28;20611;-88
2022/10/11 03:35:28;;;;;;;13.67;12.20;;;16.20;96.90;;;;;;5052425;28;20538;-87
2022/10/11 03:37:54;;;;;;;15.27;11.53;;;16.00;97.60;;;;;;5049498;28;20310;-89
2022/10/11 03:40:19;;;;;;;15.10;13.70;;;15.90;98.40;;;;;;5052959;28;20192;-90
2022/10/11 03:42:45;;;;;;;16.77;13.57;;;15.80;98.20;;;;;;5049355;28;20565;-88
2022/10/11 03:45:11;;;;;;;15.03;13.20;;;15.70;99.00;;;;;;5042970;28;20746;-88
2022/10/11 03:47:37;;;;;;;17.33;13.87;;;15.70;99.00;;;;;;5051757;28;20192;-88
2022/10/11 03:50:08;;;;;;;15.63;13.90;;;15.60;99.00;;;;;;5048982;28;20188;-87
2022/10/11 03:52:34;;;;;;;15.07;13.47;;;15.60;99.20;;;;;;5046920;28;20228;-87
2022/10/11 03:55:00;;;;;;;15.77;14.07;;;15.60;99.80;;;;;;5051123;28;20274;-87
2022/10/11 03:57:26;;;;;;;17.13;15.37;;;15.60;99.90;;;;;;5051014;28;20177;-88
2022/10/11 03:59:51;;;;;;;22.60;15.90;;;15.50;99.90;;;;;;5049503;28;20199;-87
2022/10/11 04:02:17;;;;;;;17.37;15.67;;;15.50;99.90;;;;;;5040808;28;20213;-87
2022/10/11 04:04:43;;;;;;;17.83;16.03;;;15.50;99.90;;;;;;5046544;28;20195;-87
2022/10/11 04:07:08;;;;;;;19.43;16.60;;;15.40;99.90;;;;;;5054164;28;20176;-86
2022/10/11 04:09:34;;;;;;;18.43;16.67;;;15.40;99.90;;;;;;5054777;28;20674;-87
2022/10/11 04:12:00;;;;;;;19.20;17.20;;;15.40;99.90;;;;;;5048079;28;20692;-87
2022/10/11 04:14:25;;;;;;;21.33;16.87;;;15.30;99.90;;;;;;5074373;28;20191;-88
2022/10/11 04:16:51;;;;;;;19.83;17.83;;;15.30;99.90;;;;;;5068222;28;20222;-87
2022/10/11 04:19:17;;;;;;;20.77;18.53;;;15.30;99.90;;;;;;5066721;28;20249;-87
2022/10/11 04:21:43;;;;;;;21.37;18.30;;;15.20;99.90;;;;;;5068372;28;20212;-88
2022/10/11 04:24:10;;;;;;;22.97;19.33;;;15.20;99.90;;;;;;5059165;28;20195;-88
2022/10/11 04:26:36;;;;;;;22.27;18.83;;;15.10;99.90;;;;;;5050133;28;20824;-87
2022/10/11 04:29:03;;;;;;;21.00;19.00;;;15.10;99.90;;;;;;5050249;28;20193;-88
2022/10/11 04:31:29;;;;;;;19.67;17.87;;;15.10;99.90;;;;;;5050439;28;21007;-89
2022/10/11 04:33:55;;;;;;;21.47;19.47;;;15.10;99.90;;;;;;5052672;28;20187;-88
2022/10/11 04:36:22;;;;;;;21.03;18.93;;;15.00;99.90;;;;;;5053676;28;20830;-89
2022/10/11 04:38:47;;;;;;;20.77;18.77;;;15.00;99.90;;;;;;5045441;28;20222;-88
2022/10/11 04:41:14;;;;;;;22.13;19.97;;;15.10;99.90;;;;;;5049535;28;20612;-88
2022/10/11 04:43:40;;;;;;;21.93;19.87;;;15.10;99.90;;;;;;5046944;28;20195;-87
2022/10/11 04:46:06;;;;;;;21.73;19.43;;;15.00;99.90;;;;;;5051172;28;20223;-87
2022/10/11 04:48:32;;;;;;;21.13;19.10;;;15.00;99.90;;;;;;5052793;28;20218;-87
2022/10/11 04:50:57;;;;;;;20.60;18.70;;;15.00;99.90;;;;;;5053976;28;20192;-86
2022/10/11 04:53:24;;;;;;;21.70;19.50;;;15.00;99.90;;;;;;5051732;28;20653;-87
2022/10/11 04:56:17;;;;;;;22.03;19.73;;;14.90;99.90;;;;;;5052318;28;20648;-85
2022/10/11 04:58:44;;;;;;;20.80;18.63;;;15.00;99.90;;;;;;5051357;28;20199;-87
2022/10/11 05:01:10;;;;;;;20.47;18.27;;;15.00;99.90;;;;;;5052606;28;20217;-87
2022/10/11 05:03:36;;;;;;;21.30;19.30;;;15.00;99.90;;;;;;5047391;28;20192;-88
2022/10/11 05:06:03;;;;;;;19.80;16.87;;;15.10;99.90;;;;;;5052404;28;20216;-88
2022/10/11 05:08:29;;;;;;;18.13;16.33;;;15.20;99.90;;;;;;5051940;28;20198;-88
2022/10/11 05:11:03;;;;;;;20.97;18.77;;;15.40;99.90;;;;;;5045026;28;20192;-88
2022/10/11 05:13:29;;;;;;;21.60;19.07;;;15.40;99.90;;;;;;5051912;28;20346;-87
2022/10/11 05:15:56;;;;;;;21.43;19.07;;;15.30;99.90;;;;;;5050638;28;20192;-86
2022/10/11 05:18:22;;;;;;;19.40;17.13;;;15.20;99.90;;;;;;5051026;28;20187;-87
2022/10/11 05:20:48;;;;;;;18.90;16.77;;;15.10;99.90;;;;;;5049772;28;20188;-86
2022/10/11 05:23:14;;;;;;;18.07;16.33;;;15.10;99.90;;;;;;5051176;28;20221;-86
2022/10/11 05:25:40;;;;;;;17.50;15.87;;;15.00;99.90;;;;;;5052160;28;20270;-86
2022/10/11 05:28:06;;;;;;;17.23;15.63;;;15.00;99.90;;;;;;5049905;28;20217;-86
2022/10/11 05:30:31;;;;;;;17.17;15.47;;;15.10;99.90;;;;;;5051314;28;20188;-86
2022/10/11 05:32:57;;;;;;;18.47;14.83;;;15.10;99.90;;;;;;5052695;28;20238;-87
2022/10/11 05:35:23;;;;;;;17.30;13.90;;;15.10;99.90;;;;;;5051272;28;20565;-87
2022/10/11 05:37:48;;;;;;;14.77;13.27;;;14.90;99.90;;;;;;5053289;28;20560;-87
2022/10/11 05:40:14;;;;;;;13.70;12.40;;;14.90;99.90;;;;;;5052605;28;20882;-89
2022/10/11 05:42:40;;;;;;;13.53;12.17;;;14.90;99.90;;;;;;5050408;28;20222;-90
2022/10/11 05:45:06;;;;;;;12.43;11.13;;;14.80;99.90;;;;;;5050884;28;20215;-88
2022/10/11 05:47:32;;;;;;;12.20;11.00;;;14.90;99.90;;;;;;5052541;28;20199;-86
2022/10/11 05:49:58;;;;;;;12.80;10.43;;;15.00;99.90;;;;;;5045336;28;20240;-85
2022/10/11 05:52:24;;;;;;;11.30;10.20;;;14.90;99.90;;;;;;5032557;28;20255;-85
2022/10/11 05:54:49;;;;;;;12.23;11.03;;;14.90;99.90;;;;;;5034181;28;20200;-84
2022/10/11 05:57:15;;;;;;;9.90;9.00;;;14.80;99.80;;;;;;5035468;28;20196;-84
2022/10/11 05:59:41;;;;;;;10.00;8.97;;;14.70;99.90;;;;;;5061224;28;20174;-85
2022/10/11 06:02:13;;;;;;;9.47;8.47;;;14.80;99.90;;;;;;5066444;28;20304;-84
2022/10/11 06:04:39;;;;;;;9.40;8.57;;;14.90;99.90;;;;;;5041615;28;20758;-85
2022/10/11 06:07:05;;;;;;;9.67;8.67;;;15.00;99.70;;;;;;5039426;28;20288;-85
2022/10/11 06:09:33;;;;;;;10.93;9.70;;;15.10;99.70;;;;;;5037272;28;20246;-85
2022/10/11 06:11:58;;;;;;;10.40;8.53;;;15.10;98.70;;;;;;5040853;28;20206;-85
2022/10/11 06:14:24;;;;;;;8.73;7.93;;;15.10;98.50;;;;;;5031552;28;20189;-85
2022/10/11 06:16:50;;;;;;;15.77;8.73;;;15.10;99.00;;;;;;5041567;28;20252;-85
2022/10/11 06:19:16;;;;;;;9.70;8.77;;;15.20;98.60;;;;;;5039932;28;20192;-85
2022/10/11 06:21:42;;;;;;;11.37;7.80;;;15.20;98.10;;;;;;5040698;28;20219;-85
2022/10/11 06:24:08;;;;;;;9.37;7.77;;;15.10;98.30;;;;;;5037262;28;20193;-84
2022/10/11 06:26:34;;;;;;;8.43;7.20;;;15.20;98.40;;;;;;5069571;28;20280;-84
2022/10/11 06:29:00;;;;;;;8.23;6.37;;;15.00;96.80;;;;;;5066638;28;20191;-84
2022/10/11 06:31:25;;;;;;;10.13;6.03;;;14.90;97.20;;;;;;5062098;28;20200;-84
2022/10/11 06:33:51;;;;;;;8.27;5.27;;;15.00;96.30;;;;;;5042158;28;20200;-85
2022/10/11 06:36:17;;;;;;;7.10;5.23;;;15.00;93.80;;;;;;5042011;28;20197;-85
2022/10/11 06:38:43;;;;;;;5.37;4.50;;;14.90;93.90;;;;;;5044622;28;20664;-85
2022/10/11 06:41:15;;;;;;;9.20;4.47;;;14.80;92.90;;;;;;5039410;28;20210;-85
2022/10/11 06:43:40;;;;;;;5.43;3.90;;;14.80;91.40;;;;;;5035947;28;20247;-85
2022/10/11 06:46:07;;;;;;;6.50;4.37;;;14.80;89.60;;;;;;5036055;28;20222;-85
2022/10/11 06:48:32;;;;;;;5.23;4.00;;;14.70;89.70;;;;;;5039738;28;20185;-85
2022/10/11 06:50:59;;;;;;;8.53;4.10;;;14.60;88.30;;;;;;5034944;28;20286;-85
2022/10/11 06:53:25;;;;;;;6.80;3.70;;;14.50;88.90;;;;;;5039670;28;20235;-85
2022/10/11 06:55:50;;;;;;;7.73;3.83;;;14.40;87.70;;;;;;5045031;28;20190;-84
2022/10/11 06:58:17;;;;;;;4.60;3.40;;;14.30;87.90;;;;;;5061411;28;20212;-84
2022/10/11 07:00:42;;;;;;;8.90;3.70;;;14.30;87.60;;;;;;5055939;28;20253;-84
2022/10/11 07:03:08;;;;;;;6.47;3.80;;;14.30;88.60;;;;;;5042029;28;20250;-85
2022/10/11 07:05:34;;;;;;;6.47;3.50;;;14.30;86.80;;;;;;5041707;28;20213;-84
2022/10/11 07:08:00;;;;;;;6.47;3.50;;;14.30;86.40;;;;;;5036272;28;20201;-84
2022/10/11 07:10:26;;;;;;;9.93;3.70;;;14.20;86.50;;;;;;5052279;28;20617;-84
2022/10/11 07:12:52;;;;;;;8.00;3.80;;;14.10;86.20;;;;;;5047500;28;20244;-85
2022/10/11 07:15:18;;;;;;;8.53;3.67;;;14.20;85.50;;;;;;5034275;28;20192;-85
2022/10/11 07:17:43;;;;;;;8.43;3.60;;;14.10;86.30;;;;;;5038705;28;20262;-85
2022/10/11 07:20:10;;;;;;;9.10;3.73;;;14.10;86.00;;;;;;5034372;28;20200;-85
2022/10/11 07:22:36;;;;;;;6.00;3.23;;;14.00;86.30;;;;;;5033692;28;20224;-85
2022/10/11 07:25:01;;;;;;;5.60;3.17;;;14.00;85.60;;;;;;5036894;28;20192;-84
2022/10/11 07:27:27;;;;;;;8.03;3.60;;;14.10;86.40;;;;;;5037164;28;20192;-85
2022/10/11 07:29:53;;;;;;;7.97;3.27;;;14.20;86.20;;;;;;5038146;28;20213;-85
2022/10/11 07:32:18;;;;;;;7.50;3.10;;;14.30;84.60;;;;;;5038079;28;20622;-85
2022/10/11 07:34:44;;;;;;;7.17;3.80;;;14.40;84.80;;;;;;5030105;28;20205;-85
2022/10/11 07:37:10;;;;;;;7.27;3.70;;;14.50;84.30;;;;;;5034804;28;20216;-85
2022/10/11 07:39:35;;;;;;;9.30;4.00;;;14.50;82.70;;;;;;5036372;28;20256;-85
2022/10/11 07:42:01;;;;;;;8.10;3.30;;;14.50;82.60;;;;;;5041518;28;20213;-85
2022/10/11 07:44:27;;;;;;;10.20;3.90;;;14.40;81.90;;;;;;5039895;28;20192;-85
2022/10/11 07:46:53;;;;;;;10.47;3.47;;;14.30;82.10;;;;;;5041247;28;20266;-84
2022/10/11 07:49:18;;;;;;;11.27;4.03;;;14.30;82.50;;;;;;5042114;28;20278;-85
2022/10/11 07:51:44;;;;;;;8.03;3.33;;;14.40;81.90;;;;;;5038001;28;20442;-85
2022/10/11 07:54:09;;;;;;;8.07;3.80;;;14.30;81.90;;;;;;5040033;28;20230;-85
2022/10/11 07:56:36;;;;;;;4.67;3.40;;;14.30;80.80;;;;;;5036143;28;20254;-85
2022/10/11 07:59:02;;;;;;;6.00;3.60;;;14.20;81.20;;;;;;5039584;28;20185;-85
2022/10/11 08:01:29;;;;;;;8.40;3.50;;;14.10;82.60;;;;;;5046266;28;20258;-85
2022/10/11 08:03:58;;;;;;;6.70;3.40;;;14.20;82.00;;;;;;5037802;28;20192;-85
2022/10/11 08:06:28;;;;;;;9.00;3.67;;;14.20;82.60;;;;;;5048094;28;20262;-85
2022/10/11 08:08:54;;;;;;;10.23;3.83;;;14.10;82.90;;;;;;5045066;28;20536;-85
2022/10/11 08:11:31;;;;;;;6.97;3.73;;;13.90;83.40;;;;;;5043425;28;20195;-85
2022/10/11 08:13:58;;;;;;;7.87;3.60;;;13.90;84.10;;;;;;5041644;28;20178;-85
2022/10/11 08:16:24;;;;;;;6.17;3.50;;;14.00;83.40;;;;;;5039486;28;20747;-85
2022/10/11 08:18:50;;;;;;;7.57;4.00;;;14.00;83.40;;;;;;5039741;28;20271;-85
2022/10/11 08:21:17;;;;;;;8.40;3.47;;;14.20;82.60;;;;;;5043375;28;20196;-85
2022/10/11 08:23:43;;;;;;;9.43;3.90;;;14.20;84.20;;;;;;5043243;28;20211;-85
2022/10/11 08:26:09;;;;;;;9.93;4.00;;;14.40;82.80;;;;;;5041923;28;20206;-88
2022/10/11 08:28:35;;;;;;;5.60;3.77;;;14.50;81.40;;;;;;5051075;28;20188;-85
2022/10/11 08:31:01;;;;;;;8.93;3.57;;;14.60;80.40;;;;;;5041563;28;20533;-85
2022/10/11 08:33:26;;;;;;;5.47;3.23;;;14.60;80.10;;;;;;5044051;28;20214;-85
2022/10/11 08:35:53;;;;;;;9.23;3.47;;;14.90;79.40;;;;;;5045505;28;20661;-85
2022/10/11 08:38:38;;;;;;;8.90;3.87;;;15.00;78.60;;;;;;5045893;28;21766;-85
2022/10/11 08:41:19;;;;;;;6.93;3.40;;;15.00;78.20;;;;;;5047647;28;20183;-85
2022/10/11 08:43:59;;;;;;;6.20;3.50;;;15.00;77.50;;;;;;5041566;28;20191;-85
2022/10/11 08:46:32;;;;;;;7.27;3.40;;;14.80;77.40;;;;;;5043311;28;20688;-86
2022/10/11 08:49:00;;;;;;;8.03;4.20;;;14.70;78.50;;;;;;5040734;28;20194;-86
2022/10/11 08:51:34;;;;;;;9.03;3.60;;;14.60;79.00;;;;;;5040436;28;20547;-86
2022/10/11 08:54:05;;;;;;;10.47;3.80;;;14.70;79.40;;;;;;5037632;28;20293;-85
2022/10/11 08:56:35;;;;;;;14.77;4.20;;;14.80;78.90;;;;;;5040077;28;20192;-85
2022/10/11 08:59:13;;;;;;;8.03;3.57;;;14.70;79.30;;;;;;5048041;28;20209;-86
2022/10/11 09:01:52;;;;;;;8.50;3.97;;;14.70;80.10;;;;;;5041231;28;20704;-86
2022/10/11 09:04:18;;;;;;;5.77;3.23;;;14.70;79.80;;;;;;5035310;28;20189;-87
2022/10/11 09:07:10;;;;;;;9.53;3.90;;;14.70;80.50;;;;;;5038013;28;20699;-87
2022/10/11 09:09:38;;;;;;;7.90;3.90;;;15.00;80.20;;;;;;5041994;28;20196;-86
2022/10/11 09:12:24;;;;;;;8.83;3.73;;;15.20;78.70;;;;;;5041485;28;20204;-86
2022/10/11 09:15:02;;;;;;;9.17;4.20;;;15.40;78.20;;;;;;5042948;28;20182;-86
2022/10/11 09:17:43;;;;;;;7.33;3.70;;;15.40;79.20;;;;;;5043771;28;20645;-86
2022/10/11 09:20:19;;;;;;;5.63;3.70;;;15.50;77.50;;;;;;5041444;28;20199;-87
2022/10/11 09:23:19;;;;;;;5.83;4.00;;;15.50;77.70;;;;;;5041656;28;20208;-87
2022/10/11 09:25:57;;;;;;;6.90;3.90;;;15.60;78.10;;;;;;5062604;28;20231;-85
2022/10/11 09:28:34;;;;;;;9.53;4.37;;;15.90;77.50;;;;;;5063997;28;20196;-86
2022/10/11 09:30:59;;;;;;;13.53;4.20;;;15.80;77.60;;;;;;5044080;28;20284;-86
2022/10/11 09:33:46;;;;;;;9.77;4.20;;;15.80;78.00;;;;;;5040966;28;20214;-86
2022/10/11 09:36:30;;;;;;;7.80;4.17;;;15.90;78.20;;;;;;5041082;28;20181;-86
2022/10/11 09:39:13;;;;;;;10.20;4.33;;;15.90;77.30;;;;;;5038486;28;20557;-86
2022/10/11 09:42:04;;;;;;;7.07;3.73;;;15.90;77.40;;;;;;5041853;28;20207;-86
2022/10/11 09:44:35;;;;;;;7.47;3.70;;;15.60;78.30;;;;;;5040190;28;20180;-86
2022/10/11 09:47:01;;;;;;;8.73;4.20;;;15.60;80.00;;;;;;5041157;28;20220;-86
2022/10/11 09:49:45;;;;;;;14.10;4.90;;;15.50;80.90;;;;;;5042439;28;20188;-87
2022/10/11 09:52:16;;;;;;;9.10;4.33;;;15.80;79.80;;;;;;5035473;28;20692;-86
2022/10/11 09:54:49;;;;;;;7.77;4.00;;;15.80;78.90;;;;;;5042103;28;20185;-86
2022/10/11 09:57:21;;;;;;;9.70;4.57;;;15.70;80.30;;;;;;5035230;28;20196;-87
2022/10/11 10:00:05;;;;;;;6.63;4.70;;;15.60;80.50;;;;;;5040304;28;20207;-86
2022/10/11 10:02:58;;;;;;;11.70;4.80;;;15.60;80.60;;;;;;5040163;28;20219;-87
2022/10/11 10:05:32;;;;;;;9.90;4.20;;;15.50;81.40;;;;;;5039554;28;20214;-86
2022/10/11 10:08:10;;;;;;;7.23;5.00;;;15.50;82.00;;;;;;5054573;28;20537;-86
2022/10/11 10:10:42;;;;;;;7.57;4.33;;;15.50;81.50;;;;;;5039902;28;20274;-86
2022/10/11 10:13:22;;;;;;;7.37;4.70;;;15.50;82.00;;;;;;5048888;28;20212;-86
2022/10/11 10:15:52;;;;;;;13.27;5.60;;;15.70;81.10;;;;;;5042671;28;20212;-86
2022/10/11 10:18:41;;;;;;;8.13;5.37;;;15.80;80.60;;;;;;5042583;28;20202;-87
2022/10/11 10:21:12;;;;;;;7.97;5.23;;;16.00;79.50;;;;;;5042400;28;20191;-87
2022/10/11 10:23:38;;;;;;;9.50;4.87;;;16.20;78.60;;;;;;5040248;28;20195;-87
2022/10/11 10:26:14;;;;;;;5.03;4.43;;;16.30;78.90;;;;;;5043662;28;20248;-86
2022/10/11 10:28:56;;;;;;;8.70;5.30;;;16.30;78.90;;;;;;5045169;28;20230;-86
2022/10/11 10:31:28;;;;;;;8.63;5.67;;;16.10;79.00;;;;;;5045304;28;20189;-86
2022/10/11 10:33:56;;;;;;;9.67;5.60;;;15.70;81.60;;;;;;5049555;28;20183;-86
2022/10/11 10:36:44;;;;;;;8.70;5.33;;;15.70;81.80;;;;;;5047041;28;20250;-86
2022/10/11 10:39:28;;;;;;;11.53;5.60;;;15.80;81.20;;;;;;5047574;28;20195;-87
2022/10/11 10:41:54;;;;;;;8.53;4.80;;;15.80;82.10;;;;;;5045480;28;20207;-85
2022/10/11 10:44:20;;;;;;;9.47;4.70;;;15.90;81.60;;;;;;5044153;28;20189;-86
2022/10/11 10:47:07;;;;;;;10.97;5.27;;;16.00;81.80;;;;;;5058650;28;20196;-84
2022/10/11 10:49:43;;;;;;;9.60;5.57;;;16.20;80.90;;;;;;5044827;28;20176;-87
2022/10/11 10:52:30;;;;;;;7.93;4.97;;;16.30;80.20;;;;;;5051019;28;20204;-87
2022/10/11 10:55:21;;;;;;;6.70;5.10;;;16.50;80.20;;;;;;5052639;28;20201;-86
2022/10/11 10:58:11;;;;;;;10.63;5.57;;;16.70;79.40;;;;;;5047235;28;20183;-86
2022/10/11 11:00:44;;;;;;;9.30;5.20;;;16.70;78.40;;;;;;5055801;28;20194;-86
2022/10/11 11:03:35;;;;;;;9.67;5.30;;;16.40;78.70;;;;;;5042154;28;20922;-87
2022/10/11 11:06:07;;;;;;;12.63;5.97;;;16.60;79.00;;;;;;5035922;28;20201;-87
2022/10/11 11:09:06;;;;;;;12.17;5.20;;;17.10;77.20;;;;;;5036884;28;20187;-86
2022/10/11 11:11:47;;;;;;;9.40;4.95;;;17.20;76.20;;;;;;5033337;28;20260;-89
2022/10/11 11:14:24;;;;;;;7.43;4.70;;;17.30;75.60;;;;;;5031137;28;20245;-86
2022/10/11 11:16:56;;;;;;;9.80;4.88;;;17.20;74.20;;;;;;5035103;28;20657;-87
2022/10/11 11:19:57;;;;;;;11.03;5.30;;;17.20;74.10;;;;;;5054462;28;20194;-86
2022/10/11 11:22:44;;;;;;;5.80;4.57;;;17.20;73.60;;;;;;5003624;28;20209;-85
2022/10/11 11:25:37;;;;;;;6.60;4.97;;;17.40;73.90;;;;;;5034564;28;20244;-88
2022/10/11 11:28:40;;;;;;;6.80;4.80;;;17.20;73.90;;;;;;5034332;28;20617;-88
2022/10/11 11:31:34;;;;;;;9.37;5.00;;;17.30;74.90;;;;;;5038476;28;20197;-87
2022/10/11 11:33:59;;;;;;;10.40;5.50;;;17.50;74.50;;;;;;5037494;28;20189;-88
2022/10/11 11:36:36;;;;;;;10.77;5.40;;;17.40;74.20;;;;;;5035334;28;20183;-88
2022/10/11 11:39:05;;;;;;;9.90;5.13;;;17.20;75.50;;;;;;5040588;28;20246;-87
2022/10/11 11:41:45;;;;;;;7.77;4.97;;;17.30;76.00;;;;;;5038648;28;20183;-88
2022/10/11 11:44:29;;;;;;;9.87;5.43;;;17.20;76.80;;;;;;5041513;28;20185;-87
2022/10/11 11:47:11;;;;;;;6.73;5.63;;;17.30;75.50;;;;;;5035079;28;20670;-87
2022/10/11 11:49:40;;;;;;;8.00;5.30;;;17.30;76.00;;;;;;5036775;28;20201;-87
2022/10/11 11:52:11;;;;;;;8.83;5.47;;;17.40;76.10;;;;;;5041150;28;20214;-87
2022/10/11 11:55:17;;;;;;;7.85;4.78;;;17.50;75.90;;;;;;5035266;28;20229;-87
2022/10/11 11:58:04;;;;;;;8.57;5.45;;;17.70;75.20;;;;;;5039270;28;20712;-87
2022/10/11 12:00:46;;;;;;;8.38;5.50;;;17.70;74.70;;;;;;5037857;28;20202;-87
2022/10/11 12:03:19;;;;;;;8.97;4.90;;;17.60;74.60;;;;;;5038028;28;20211;-87
2022/10/11 12:06:12;;;;;;;6.47;5.47;;;17.50;75.30;;;;;;5037795;28;20604;-87
2022/10/11 12:08:42;;;;;;;9.13;5.00;;;17.60;75.60;;;;;;5038172;28;20198;-87
2022/10/11 12:11:23;;;;;;;12.20;5.00;;;17.50;75.50;;;;;;5041812;28;20184;-87
2022/10/11 12:13:50;;;;;;;9.02;5.13;;;17.70;74.30;;;;;;5038912;28;20260;-86
2022/10/11 12:16:17;;;;;;;7.85;5.28;;;17.80;74.30;;;;;;5045103;28;20198;-87
2022/10/11 12:19:02;;;;;;;7.95;5.43;;;17.90;74.20;;;;;;5042588;28;20196;-87
2022/10/11 12:21:38;;;;;;;10.35;5.60;;;18.00;73.20;;;;;;5041896;28;20183;-87
2022/10/11 12:24:17;;;;;;;8.82;5.30;;;17.90;73.60;;;;;;5038209;28;20268;-87
2022/10/11 12:26:47;;;;;;;11.45;6.30;;;18.00;73.50;;;;;;5040755;28;20735;-87
2022/10/11 12:29:17;;;;;;;9.93;5.33;;;18.10;72.70;;;;;;5044684;28;20187;-87
2022/10/11 12:31:45;;;;;;;8.70;5.67;;;18.00;73.50;;;;;;5042984;28;20208;-87
2022/10/11 12:34:19;;;;;;;12.98;5.43;;;17.70;74.50;;;;;;5050990;28;20198;-87
2022/10/11 12:36:47;;;;;;;13.30;5.45;;;17.80;75.00;;;;;;5041808;28;20183;-87
2022/10/11 12:39:19;;;;;;;9.00;5.17;;;17.80;74.30;;;;;;5044280;28;20656;-87
2022/10/11 12:41:52;;;;;;;8.48;5.13;;;17.80;74.00;;;;;;5047959;28;20761;-88
2022/10/11 12:44:17;;;;;;;11.55;5.40;;;17.80;74.70;;;;;;5046583;28;20628;-87
2022/10/11 12:46:49;;;;;;;11.05;5.60;;;17.80;75.20;;;;;;5050151;28;20284;-87
2022/10/11 12:49:35;;;;;;;9.70;5.53;;;17.70;76.10;;;;;;5048630;28;20420;-87
2022/10/11 12:52:26;;;;;;;6.20;5.32;;;17.70;76.50;;;;;;5060494;28;20182;-87
2022/10/11 12:55:09;;;;;;;12.52;5.93;;;18.00;74.70;;;;;;5035803;28;20223;-87
2022/10/11 12:58:06;;;;;;;8.18;5.40;;;18.20;74.50;;;;;;5047670;28;20275;-87
2022/10/11 13:01:02;;;;;;;14.23;6.32;;;18.80;71.30;;;;;;5057382;28;20200;-87
2022/10/11 13:03:43;;;;;;;7.47;5.97;;;19.10;70.10;;;;;;5044345;28;20231;-86